Time;durP1;ratioP1;P1;durP2;ratioP2;P2;SDS_P1;SDS_P2;PMS_P1;PMS_P2;Temp;Humidity;BMP_temperature;BMP_pressure;BME280_temperature;BME280_humidity;BME280_pressure;Samples;Min_cycle;Max_cycle;Signal;HPM_P1;HPM_P2
2021/12/04 00:02:01;;;;;;;46.38;27.13;;;4.80;99.90;;;;;;4999675;28;20046;-66
2021/12/04 00:04:32;;;;;;;60.45;30.20;;;4.80;99.90;;;;;;5016666;28;20371;-65
2021/12/04 00:06:58;;;;;;;56.80;29.38;;;4.80;99.90;;;;;;4999753;28;20088;-66
2021/12/04 00:09:24;;;;;;;56.03;28.90;;;4.80;99.90;;;;;;4998458;28;20049;-67
2021/12/04 00:11:59;;;;;;;56.75;28.73;;;4.80;99.90;;;;;;4999291;28;20336;-65
2021/12/04 00:14:25;;;;;;;62.65;29.30;;;4.80;99.90;;;;;;5016762;28;20541;-66
2021/12/04 00:16:52;;;;;;;57.00;28.38;;;4.80;99.90;;;;;;4999266;28;20045;-67
2021/12/04 00:19:18;;;;;;;55.28;29.83;;;4.70;99.90;;;;;;4999002;28;20061;-65
2021/12/04 00:21:44;;;;;;;61.85;29.60;;;4.80;99.90;;;;;;4998960;28;20046;-65
2021/12/04 00:24:11;;;;;;;64.50;29.95;;;4.80;99.90;;;;;;4998961;28;20117;-66
2021/12/04 00:26:37;;;;;;;60.67;29.42;;;4.80;99.90;;;;;;4999227;28;20045;-67
2021/12/04 00:29:04;;;;;;;66.35;29.98;;;4.80;99.90;;;;;;5011689;28;20065;-67
2021/12/04 00:31:30;;;;;;;65.70;31.33;;;4.80;99.90;;;;;;4979644;28;20054;-66
2021/12/04 00:33:56;;;;;;;55.10;28.77;;;4.80;99.90;;;;;;4979874;28;20518;-67
2021/12/04 00:49:57;;;;;;;67.88;30.67;;;4.80;99.90;;;;;;4995612;28;20058;-66
2021/12/04 00:52:22;;;;;;;65.53;30.42;;;4.80;99.90;;;;;;4995971;28;20042;-66
2021/12/04 00:54:48;;;;;;;61.78;29.15;;;4.80;99.90;;;;;;4979445;28;20357;-65
2021/12/04 00:57:13;;;;;;;72.43;31.50;;;4.80;99.90;;;;;;4979567;28;20050;-65
2021/12/04 00:59:39;;;;;;;64.97;29.45;;;4.80;99.90;;;;;;4988320;28;20049;-66
2021/12/04 01:02:05;;;;;;;69.90;31.25;;;4.80;99.90;;;;;;5015759;28;20133;-65
2021/12/04 01:04:31;;;;;;;65.75;30.38;;;4.80;99.90;;;;;;5015998;28;20042;-67
2021/12/04 01:06:57;;;;;;;62.03;29.58;;;4.80;99.90;;;;;;5015784;28;20046;-66
2021/12/04 01:09:24;;;;;;;64.35;28.92;;;4.80;99.90;;;;;;4998270;28;20442;-65
2021/12/04 01:11:52;;;;;;;73.30;31.20;;;4.80;99.90;;;;;;5015979;28;20050;-67
2021/12/04 01:14:20;;;;;;;63.35;29.05;;;4.80;99.90;;;;;;4998294;28;20038;-67
2021/12/04 01:16:47;;;;;;;66.32;29.65;;;4.80;99.90;;;;;;4998269;28;20051;-65
2021/12/04 01:19:17;;;;;;;72.00;29.75;;;4.80;99.90;;;;;;4998256;28;20046;-65
2021/12/04 01:21:43;;;;;;;68.38;28.88;;;4.80;99.90;;;;;;4997429;28;20065;-65
2021/12/04 01:24:09;;;;;;;76.28;30.60;;;4.80;99.90;;;;;;5015243;28;20458;-66
2021/12/04 01:26:35;;;;;;;69.40;28.40;;;4.80;99.90;;;;;;4998304;28;20107;-65
2021/12/04 01:29:00;;;;;;;62.17;27.67;;;4.70;99.90;;;;;;5009261;28;20481;-66
2021/12/04 01:31:26;;;;;;;62.13;28.45;;;4.80;99.90;;;;;;4978637;28;20061;-67
2021/12/04 01:33:52;;;;;;;61.40;28.02;;;4.80;99.90;;;;;;4979083;28;20057;-65
2021/12/04 01:36:18;;;;;;;73.18;30.33;;;4.80;99.90;;;;;;4978746;28;20578;-67
2021/12/04 01:38:43;;;;;;;60.05;27.63;;;4.80;99.90;;;;;;4978908;28;20054;-66
2021/12/04 01:41:09;;;;;;;64.18;28.30;;;4.80;99.90;;;;;;4978794;28;20133;-67
2021/12/04 01:43:35;;;;;;;70.47;28.98;;;4.80;99.90;;;;;;4978965;28;20489;-65
2021/12/04 01:46:00;;;;;;;61.33;27.92;;;4.80;99.90;;;;;;4978350;28;20053;-65
2021/12/04 01:48:26;;;;;;;58.15;27.95;;;4.80;99.90;;;;;;4978553;28;20108;-65
2021/12/04 01:50:54;;;;;;;78.63;29.15;;;4.80;99.90;;;;;;4977998;28;20061;-65
2021/12/04 01:53:20;;;;;;;80.50;29.98;;;4.80;99.90;;;;;;4978831;28;20051;-67
2021/12/04 01:55:46;;;;;;;69.43;27.60;;;4.80;99.90;;;;;;4978889;28;20463;-66
2021/12/04 01:58:12;;;;;;;70.45;28.67;;;4.80;99.90;;;;;;4978635;28;20061;-65
2021/12/04 02:00:41;;;;;;;61.08;28.10;;;4.80;99.90;;;;;;4997224;28;20549;-66
2021/12/04 02:03:08;;;;;;;65.28;27.85;;;4.80;99.90;;;;;;5014991;28;20431;-64
2021/12/04 02:05:38;;;;;;;61.28;27.50;;;4.70;99.90;;;;;;5015066;28;20049;-66
2021/12/04 02:08:08;;;;;;;68.22;28.40;;;4.80;99.90;;;;;;4997736;28;20045;-67
2021/12/04 02:10:35;;;;;;;82.03;28.98;;;4.80;99.90;;;;;;4997831;28;20046;-65
2021/12/04 02:13:01;;;;;;;70.93;28.60;;;4.80;99.90;;;;;;5014962;28;20049;-66
2021/12/04 02:15:28;;;;;;;63.88;27.42;;;4.80;99.90;;;;;;4997979;28;20068;-65
2021/12/04 02:17:54;;;;;;;63.55;27.48;;;4.70;99.90;;;;;;4997818;28;20371;-67
2021/12/04 02:20:22;;;;;;;68.03;26.83;;;4.80;99.90;;;;;;4997594;28;20042;-64
2021/12/04 02:22:48;;;;;;;65.90;27.25;;;4.70;99.90;;;;;;4997489;28;20121;-65
2021/12/04 02:25:15;;;;;;;58.97;25.13;;;4.80;99.90;;;;;;4997468;28;20046;-65
2021/12/04 02:27:43;;;;;;;54.20;23.88;;;4.80;99.90;;;;;;4997307;28;20065;-65
2021/12/04 02:30:12;;;;;;;61.55;25.52;;;4.80;99.90;;;;;;4980030;28;20046;-67
2021/12/04 02:32:38;;;;;;;61.42;25.17;;;4.70;99.90;;;;;;4978295;28;20050;-66
2021/12/04 02:35:07;;;;;;;56.85;24.90;;;4.80;99.90;;;;;;4982235;28;20046;-67
2021/12/04 02:37:34;;;;;;;52.47;23.02;;;4.70;99.90;;;;;;4981385;28;20116;-65
2021/12/04 02:40:00;;;;;;;51.28;24.30;;;4.70;99.90;;;;;;4981781;28;20052;-66
2021/12/04 02:42:29;;;;;;;56.47;24.33;;;4.70;99.90;;;;;;4981696;28;20085;-66
2021/12/04 02:44:55;;;;;;;58.38;24.55;;;4.70;99.90;;;;;;4981505;28;20050;-66
2021/12/04 02:47:21;;;;;;;49.58;22.25;;;4.80;99.90;;;;;;4981300;28;20042;-66
2021/12/04 02:49:47;;;;;;;47.15;22.52;;;4.70;99.90;;;;;;4981187;28;20124;-67
2021/12/04 02:52:14;;;;;;;52.92;22.95;;;4.80;99.90;;;;;;4981560;28;20065;-65
2021/12/04 02:54:40;;;;;;;46.78;21.50;;;4.80;99.90;;;;;;4981556;28;20120;-64
2021/12/04 02:57:08;;;;;;;50.08;22.70;;;4.80;99.90;;;;;;4981576;28;20371;-67
2021/12/04 02:59:35;;;;;;;41.03;21.33;;;4.80;99.90;;;;;;4993015;28;20125;-66
2021/12/04 03:02:01;;;;;;;49.22;22.13;;;4.70;99.90;;;;;;5000834;28;20064;-65
2021/12/04 03:04:28;;;;;;;42.90;22.35;;;4.70;99.90;;;;;;5001387;28;20128;-65
2021/12/04 03:06:54;;;;;;;40.67;21.27;;;4.80;99.90;;;;;;5017889;28;20103;-67
2021/12/04 03:09:20;;;;;;;42.38;21.42;;;4.80;99.90;;;;;;5005200;28;20413;-66
2021/12/04 03:11:45;;;;;;;40.28;20.70;;;4.80;99.90;;;;;;5007625;28;20328;-65
2021/12/04 03:14:11;;;;;;;47.00;22.55;;;4.80;99.90;;;;;;4988563;28;20139;-65
2021/12/04 03:16:40;;;;;;;39.05;21.17;;;4.80;99.90;;;;;;5007346;28;20366;-65
2021/12/04 03:19:06;;;;;;;43.83;22.50;;;4.90;99.90;;;;;;4993545;28;20046;-66
2021/12/04 03:21:33;;;;;;;43.20;21.33;;;4.80;99.90;;;;;;5016884;28;20053;-66
2021/12/04 03:24:03;;;;;;;44.88;20.63;;;4.80;99.90;;;;;;5001211;28;20104;-65
2021/12/04 03:26:28;;;;;;;48.17;21.48;;;4.80;99.90;;;;;;4997202;28;20379;-66
2021/12/04 03:28:56;;;;;;;40.97;21.20;;;4.80;99.90;;;;;;4997520;28;20042;-64
2021/12/04 03:31:40;;;;;;;39.60;19.92;;;4.70;99.90;;;;;;4996513;28;20054;-64
2021/12/04 03:42:21;;;;;;;46.10;21.35;;;4.70;99.90;;;;;;4996889;28;20050;-66
2021/12/04 03:44:47;;;;;;;43.67;21.80;;;4.70;99.90;;;;;;4996598;28;20047;-67
2021/12/04 03:47:13;;;;;;;39.42;20.52;;;4.70;99.90;;;;;;4996767;28;20061;-67
2021/12/04 03:49:39;;;;;;;40.72;20.15;;;4.70;99.90;;;;;;4979546;28;20062;-65
2021/12/04 03:52:06;;;;;;;39.80;21.98;;;4.70;99.90;;;;;;4980565;28;20054;-66
2021/12/04 03:54:32;;;;;;;40.13;20.35;;;4.70;99.90;;;;;;4980631;28;20046;-64
2021/12/04 03:57:04;;;;;;;44.55;21.00;;;4.70;99.90;;;;;;4982984;28;20125;-66
2021/12/04 03:59:35;;;;;;;38.83;21.27;;;4.70;99.90;;;;;;4999937;28;20050;-67
2021/12/04 04:02:01;;;;;;;39.45;20.38;;;4.70;99.90;;;;;;4999605;28;20124;-64
2021/12/04 04:04:27;;;;;;;41.08;20.98;;;5.30;99.90;;;;;;5016826;28;20049;-64
2021/12/04 04:06:53;;;;;;;41.20;20.40;;;4.70;99.90;;;;;;5016907;28;20041;-67
2021/12/04 04:09:19;;;;;;;42.78;21.33;;;4.80;99.90;;;;;;5000128;28;20151;-65
2021/12/04 04:11:47;;;;;;;43.53;20.95;;;4.70;99.90;;;;;;5016878;28;20038;-66
2021/12/04 04:14:13;;;;;;;39.25;20.40;;;4.70;99.90;;;;;;4999549;28;20064;-66
2021/12/04 04:16:40;;;;;;;41.22;19.48;;;4.70;99.90;;;;;;4999454;28;20054;-66
2021/12/04 04:19:06;;;;;;;42.08;20.13;;;4.70;99.90;;;;;;4982725;28;20565;-65
2021/12/04 04:21:35;;;;;;;45.95;20.80;;;4.70;99.90;;;;;;4980032;28;20545;-66
2021/12/04 04:24:01;;;;;;;37.20;20.02;;;4.70;99.90;;;;;;4979988;28;20050;-67
2021/12/04 04:26:26;;;;;;;40.85;19.02;;;4.70;99.90;;;;;;4979836;28;20467;-65
2021/12/04 04:28:52;;;;;;;44.05;20.05;;;4.70;99.90;;;;;;4980007;28;20058;-65
2021/12/04 04:31:17;;;;;;;40.95;20.02;;;4.70;99.90;;;;;;4996625;28;20038;-67
2021/12/04 04:33:44;;;;;;;40.85;20.33;;;4.70;99.90;;;;;;4979920;28;20061;-67
2021/12/04 04:36:32;;;;;;;39.10;18.52;;;4.70;99.90;;;;;;4979675;28;20113;-65
2021/12/04 05:14:04;;;;;;;55.33;20.73;;;4.70;99.90;;;;;;5005210;28;20131;-64
2021/12/04 05:16:41;;;;;;;37.97;19.55;;;4.80;99.90;;;;;;4988828;28;20050;-66
2021/12/04 05:19:24;;;;;;;44.10;19.92;;;5.20;99.90;;;;;;4979004;28;20050;-66
2021/12/04 05:21:49;;;;;;;35.13;17.00;;;4.70;99.90;;;;;;4978989;28;20074;-67
2021/12/04 05:24:15;;;;;;;42.95;18.42;;;4.70;99.90;;;;;;4995811;28;20497;-65
2021/12/04 05:26:40;;;;;;;40.30;18.25;;;4.70;99.90;;;;;;4995998;28;20125;-67
2021/12/04 05:29:06;;;;;;;39.55;18.13;;;4.70;99.90;;;;;;4978893;28;20360;-66
2021/12/04 05:31:31;;;;;;;55.17;19.58;;;4.70;99.90;;;;;;4996284;28;20046;-65
2021/12/04 05:33:57;;;;;;;44.78;19.50;;;4.90;99.90;;;;;;4995708;28;20054;-66
2021/12/04 05:36:24;;;;;;;36.17;18.70;;;4.70;99.90;;;;;;4995506;28;20485;-66
2021/12/04 05:38:49;;;;;;;40.83;19.45;;;4.70;99.90;;;;;;4995870;28;20046;-66
2021/12/04 05:41:16;;;;;;;48.17;19.35;;;4.70;99.90;;;;;;4995868;28;20112;-66
2021/12/04 05:43:42;;;;;;;48.33;19.42;;;4.70;99.90;;;;;;4995739;28;20054;-65
2021/12/04 05:48:43;;;;;;;45.03;19.70;;;4.70;99.90;;;;;;4997507;28;20062;-66
2021/12/04 05:53:54;;;;;;;43.08;18.58;;;4.70;99.90;;;;;;5006743;28;20050;-65
2021/12/04 05:56:20;;;;;;;42.42;18.90;;;4.70;99.90;;;;;;4978544;28;20064;-66
2021/12/04 05:58:48;;;;;;;43.78;19.15;;;4.70;99.90;;;;;;4995582;28;20109;-66
2021/12/04 06:01:15;;;;;;;50.53;18.15;;;4.60;99.90;;;;;;4995307;28;20050;-66
2021/12/04 06:03:41;;;;;;;40.85;17.90;;;4.60;99.90;;;;;;4995299;28;20061;-65
2021/12/04 06:06:07;;;;;;;48.33;19.13;;;4.60;99.90;;;;;;4978524;28;20046;-66
2021/12/04 06:08:33;;;;;;;41.30;18.27;;;4.60;99.90;;;;;;4980580;28;20462;-66
2021/12/04 06:10:59;;;;;;;50.65;18.77;;;4.90;99.90;;;;;;4982307;28;20053;-66
2021/12/04 06:13:25;;;;;;;45.10;18.38;;;4.70;99.90;;;;;;4999372;28;20054;-66
2021/12/04 06:15:52;;;;;;;43.63;18.08;;;4.70;99.90;;;;;;4982079;28;20061;-66
2021/12/04 06:18:17;;;;;;;56.50;18.67;;;4.60;99.90;;;;;;4982944;28;20053;-67
2021/12/04 06:23:30;;;;;;;56.65;18.55;;;4.60;99.90;;;;;;5004172;28;20056;-66
2021/12/04 06:25:56;;;;;;;44.55;18.80;;;4.60;99.90;;;;;;5001551;28;20049;-67
2021/12/04 06:28:22;;;;;;;54.78;19.63;;;4.90;99.90;;;;;;5001347;28;20115;-65
2021/12/04 06:30:47;;;;;;;50.70;18.30;;;4.70;99.90;;;;;;5018617;28;20054;-66
2021/12/04 06:33:17;;;;;;;44.13;18.58;;;4.70;99.90;;;;;;5000974;28;20382;-66
2021/12/04 06:35:46;;;;;;;65.47;19.65;;;4.70;99.90;;;;;;5001771;28;20069;-65
2021/12/04 06:38:13;;;;;;;53.08;18.80;;;4.70;99.90;;;;;;5018485;28;20434;-67
2021/12/04 06:40:39;;;;;;;59.92;19.38;;;4.70;99.90;;;;;;5001181;28;20041;-67
2021/12/04 06:43:06;;;;;;;60.60;19.42;;;4.70;99.90;;;;;;5001525;28;20049;-66
2021/12/04 06:45:34;;;;;;;49.03;19.63;;;4.70;99.90;;;;;;5018387;28;20052;-65
2021/12/04 06:48:07;;;;;;;57.33;19.27;;;4.70;99.90;;;;;;5017952;28;20151;-66
2021/12/04 06:50:46;;;;;;;64.55;19.83;;;4.70;99.90;;;;;;5018338;28;20064;-66
2021/12/04 06:53:24;;;;;;;60.25;18.80;;;4.70;99.90;;;;;;5012040;28;20113;-65
2021/12/04 06:55:53;;;;;;;59.03;19.13;;;4.70;99.90;;;;;;4981992;28;20046;-66
2021/12/04 06:58:19;;;;;;;83.80;19.50;;;4.70;99.90;;;;;;4981766;28;20125;-64
2021/12/04 07:00:45;;;;;;;55.15;18.90;;;4.70;99.90;;;;;;4981418;28;20129;-64
2021/12/04 07:03:10;;;;;;;66.15;19.70;;;4.70;99.90;;;;;;4981309;28;20363;-65
2021/12/04 07:05:36;;;;;;;60.67;20.33;;;4.70;99.90;;;;;;4981047;28;20060;-65
2021/12/04 07:08:05;;;;;;;55.83;20.10;;;4.70;99.90;;;;;;4981190;28;20125;-67
2021/12/04 07:10:31;;;;;;;63.15;19.60;;;4.60;99.90;;;;;;4981292;28;20549;-66
2021/12/04 07:12:56;;;;;;;55.88;18.17;;;4.60;99.90;;;;;;4981403;28;20046;-65
2021/12/04 07:15:26;;;;;;;63.08;20.15;;;4.60;99.90;;;;;;4979164;28;20061;-66
2021/12/04 07:17:52;;;;;;;59.25;19.73;;;4.60;99.90;;;;;;4990779;28;20050;-66
2021/12/04 07:20:17;;;;;;;64.75;19.27;;;4.60;99.90;;;;;;5000483;28;20057;-66
2021/12/04 07:22:43;;;;;;;41.45;18.35;;;4.60;99.90;;;;;;4984175;28;20046;-65
2021/12/04 07:25:09;;;;;;;76.28;21.25;;;4.60;99.90;;;;;;5000581;28;20057;-66
2021/12/04 07:27:35;;;;;;;44.63;19.42;;;4.60;99.90;;;;;;5000446;28;20049;-65
2021/12/04 07:30:00;;;;;;;68.47;19.90;;;4.70;99.90;;;;;;4995801;28;20132;-65
2021/12/04 07:32:27;;;;;;;50.25;18.88;;;4.60;99.90;;;;;;5005728;28;20044;-64
2021/12/04 07:34:53;;;;;;;46.83;19.52;;;4.70;99.90;;;;;;5006644;28;20042;-65
2021/12/04 07:37:19;;;;;;;48.35;18.33;;;4.70;99.90;;;;;;4992230;28;20121;-66
2021/12/04 07:39:44;;;;;;;67.72;18.80;;;4.60;99.90;;;;;;4998165;28;20125;-67
2021/12/04 07:42:10;;;;;;;48.60;19.95;;;4.60;99.90;;;;;;5001754;28;20054;-63
2021/12/04 07:44:35;;;;;;;60.97;19.80;;;4.60;99.90;;;;;;4996688;28;20509;-64
2021/12/04 07:47:01;;;;;;;50.15;18.92;;;4.60;99.90;;;;;;4996271;28;20049;-64
2021/12/04 07:49:27;;;;;;;53.67;19.10;;;4.60;99.90;;;;;;4995761;28;20467;-63
2021/12/04 07:51:52;;;;;;;80.72;19.27;;;4.60;99.90;;;;;;4996518;28;20382;-65
2021/12/04 07:54:18;;;;;;;46.67;18.15;;;4.60;99.90;;;;;;4997320;28;20050;-65
2021/12/04 07:56:44;;;;;;;97.28;20.90;;;4.60;99.90;;;;;;4997224;28;20046;-65
2021/12/04 07:59:10;;;;;;;42.35;18.05;;;4.70;99.90;;;;;;4999831;28;20455;-64
2021/12/04 08:01:36;;;;;;;65.07;20.02;;;4.60;99.90;;;;;;5016285;28;20143;-65
2021/12/04 08:04:02;;;;;;;55.60;19.60;;;4.60;99.90;;;;;;5016832;28;20436;-65
2021/12/04 08:06:27;;;;;;;41.75;16.10;;;4.60;99.90;;;;;;4999595;28;20078;-65
2021/12/04 08:08:58;;;;;;;53.92;17.75;;;4.60;99.90;;;;;;4999736;28;20096;-65
2021/12/04 08:11:25;;;;;;;52.58;18.73;;;4.60;99.90;;;;;;4999205;28;20474;-65
2021/12/04 08:13:50;;;;;;;49.75;19.15;;;4.60;99.90;;;;;;4998324;28;20064;-65
2021/12/04 08:16:16;;;;;;;42.83;18.05;;;4.60;99.90;;;;;;4999413;28;20053;-65
2021/12/04 08:18:41;;;;;;;46.60;19.55;;;4.60;99.90;;;;;;4999352;28;20082;-64
2021/12/04 08:21:08;;;;;;;40.63;17.95;;;4.60;99.90;;;;;;4997207;28;20046;-66
2021/12/04 08:23:33;;;;;;;36.88;16.10;;;4.70;99.90;;;;;;4995513;28;20053;-65
2021/12/04 08:25:59;;;;;;;35.25;16.25;;;4.70;99.90;;;;;;4995652;28;20356;-65
2021/12/04 08:28:24;;;;;;;46.92;16.90;;;4.70;99.90;;;;;;4996889;28;20418;-65
2021/12/04 08:30:50;;;;;;;37.10;16.52;;;4.70;99.90;;;;;;4997122;28;20049;-64
2021/12/04 08:33:16;;;;;;;42.50;16.77;;;5.30;99.90;;;;;;4995736;28;20050;-65
2021/12/04 08:35:43;;;;;;;38.53;16.20;;;4.70;99.90;;;;;;4997222;28;20163;-65
2021/12/04 08:38:10;;;;;;;35.65;15.40;;;4.70;99.90;;;;;;4995773;28;20052;-65
2021/12/04 08:40:37;;;;;;;31.50;14.73;;;4.90;99.90;;;;;;4995604;28;20443;-65
2021/12/04 08:43:04;;;;;;;32.10;14.73;;;4.70;99.90;;;;;;4997661;28;20609;-64
2021/12/04 08:45:29;;;;;;;31.45;15.07;;;4.70;99.90;;;;;;4979255;28;20054;-67
2021/12/04 08:47:55;;;;;;;28.73;13.50;;;4.70;99.90;;;;;;5005974;28;20053;-66
2021/12/04 08:50:28;;;;;;;28.65;14.30;;;4.70;99.90;;;;;;5004463;28;20050;-66
2021/12/04 08:52:55;;;;;;;25.80;12.93;;;4.70;99.90;;;;;;4996136;28;20050;-64
2021/12/04 08:55:21;;;;;;;23.17;13.25;;;4.70;99.90;;;;;;5006597;28;20046;-65
2021/12/04 08:57:47;;;;;;;22.85;13.00;;;4.80;99.90;;;;;;4996241;28;20050;-65
2021/12/04 09:00:28;;;;;;;25.17;13.38;;;4.80;99.90;;;;;;4995981;28;20481;-66
2021/12/04 09:02:55;;;;;;;23.13;12.40;;;4.80;99.90;;;;;;5004528;28;20054;-66
2021/12/04 09:05:22;;;;;;;21.13;12.98;;;4.80;99.90;;;;;;5005429;28;20502;-65
2021/12/04 09:07:49;;;;;;;20.75;12.98;;;4.80;99.90;;;;;;5005016;28;20065;-66
2021/12/04 09:10:16;;;;;;;22.10;13.65;;;4.80;99.90;;;;;;5005972;28;20466;-66
2021/12/04 09:12:42;;;;;;;26.33;14.65;;;4.80;99.90;;;;;;5004811;28;20056;-66
2021/12/04 09:15:12;;;;;;;24.10;14.30;;;4.90;99.90;;;;;;4991617;28;20053;-67
2021/12/04 09:17:38;;;;;;;23.05;13.63;;;4.90;99.90;;;;;;5006269;28;20042;-67
2021/12/04 09:20:06;;;;;;;23.08;13.02;;;4.90;99.90;;;;;;4996104;28;20042;-64
2021/12/04 09:22:35;;;;;;;24.35;13.88;;;5.00;99.90;;;;;;5004439;28;20048;-65
2021/12/04 09:25:09;;;;;;;24.08;13.90;;;5.00;99.90;;;;;;4993120;28;20057;-67
2021/12/04 09:27:46;;;;;;;24.52;14.43;;;5.00;99.90;;;;;;4994394;28;20050;-67
2021/12/04 09:33:29;;;;;;;21.40;13.30;;;5.10;99.90;;;;;;4991904;28;20054;-64
2021/12/04 09:36:22;;;;;;;22.98;14.60;;;5.10;99.90;;;;;;4994691;28;20050;-67
2021/12/04 10:11:22;;;;;;;20.98;13.00;;;5.50;99.90;;;;;;4977788;28;20054;-67
2021/12/04 10:14:47;;;;;;;22.10;13.18;;;5.50;99.90;;;;;;4988303;28;20058;-66
2021/12/04 10:19:59;;;;;;;20.77;13.10;;;5.50;99.90;;;;;;5003862;28;20060;-65
2021/12/04 10:33:43;;;;;;;20.05;11.98;;;5.60;99.90;;;;;;5013188;28;20119;-66
2021/12/04 10:36:10;;;;;;;19.02;12.05;;;5.60;99.90;;;;;;4990244;28;20039;-67
2021/12/04 10:38:43;;;;;;;19.73;11.90;;;5.60;99.90;;;;;;4977709;28;20050;-66
2021/12/04 10:41:11;;;;;;;20.45;12.35;;;5.60;99.90;;;;;;4994991;28;20054;-67
2021/12/04 10:43:37;;;;;;;19.13;12.10;;;5.70;99.90;;;;;;4977779;28;20058;-65
2021/12/04 10:46:16;;;;;;;19.30;12.15;;;5.60;99.90;;;;;;5013941;28;20046;-64
2021/12/04 10:49:00;;;;;;;20.02;11.88;;;5.70;99.90;;;;;;4979968;28;20088;-67
2021/12/04 10:51:32;;;;;;;19.65;11.73;;;5.70;99.90;;;;;;5013440;28;20125;-66
2021/12/04 10:54:04;;;;;;;23.23;12.02;;;5.70;99.90;;;;;;5012712;28;20120;-66
2021/12/04 10:56:55;;;;;;;19.60;12.35;;;5.90;99.90;;;;;;4998233;28;20050;-64
2021/12/04 11:01:58;;;;;;;22.13;12.02;;;5.70;99.90;;;;;;4982208;28;20143;-65
2021/12/04 11:04:48;;;;;;;18.20;11.50;;;5.70;99.90;;;;;;4981396;28;20047;-65
2021/12/04 11:07:38;;;;;;;19.52;12.38;;;5.70;99.90;;;;;;4984836;28;20065;-66
2021/12/04 11:24:35;;;;;;;23.08;12.90;;;5.70;99.90;;;;;;4998253;28;20141;-65
2021/12/04 11:43:21;;;;;;;23.55;13.15;;;5.70;99.90;;;;;;5013489;28;20046;-65
2021/12/04 11:48:50;;;;;;;26.05;14.30;;;5.90;99.90;;;;;;4991799;28;20047;-65
2021/12/04 11:51:23;;;;;;;20.80;12.82;;;5.80;99.90;;;;;;4974650;28;20062;-66
2021/12/04 11:53:50;;;;;;;24.17;13.60;;;5.80;99.90;;;;;;4979690;28;20068;-65
2021/12/04 11:56:22;;;;;;;25.40;13.60;;;5.70;99.90;;;;;;4999978;28;20053;-66
2021/12/04 11:58:49;;;;;;;25.63;14.88;;;5.70;99.90;;;;;;4999721;28;20116;-65
2021/12/04 12:01:31;;;;;;;29.13;14.77;;;6.30;99.90;;;;;;5009269;28;20037;-66
2021/12/04 12:04:03;;;;;;;26.63;15.02;;;5.70;99.90;;;;;;5006656;28;20057;-64
2021/12/04 12:06:39;;;;;;;26.17;14.02;;;5.60;99.90;;;;;;4991936;28;20112;-66
2021/12/04 12:09:15;;;;;;;27.13;13.93;;;5.60;99.90;;;;;;4991298;28;20077;-66
2021/12/04 12:11:59;;;;;;;25.67;13.80;;;5.60;99.90;;;;;;5002823;28;20046;-66
2021/12/04 12:14:56;;;;;;;25.95;14.65;;;5.60;99.90;;;;;;5003870;28;20030;-66
2021/12/04 12:17:34;;;;;;;27.70;14.93;;;5.60;99.90;;;;;;4966279;28;20547;-65
2021/12/04 12:20:02;;;;;;;26.10;13.93;;;5.70;99.90;;;;;;4996994;28;20099;-66
2021/12/04 12:22:50;;;;;;;27.80;14.18;;;5.70;99.90;;;;;;4979871;28;20058;-67
2021/12/04 12:36:26;;;;;;;26.58;15.23;;;5.80;99.90;;;;;;4989227;28;20061;-67
2021/12/04 12:39:02;;;;;;;28.63;15.38;;;5.80;99.90;;;;;;4978966;28;20050;-67
2021/12/04 12:41:28;;;;;;;32.60;16.85;;;5.80;99.90;;;;;;4978671;28;20406;-66
2021/12/04 12:43:59;;;;;;;32.40;17.25;;;5.80;99.90;;;;;;4978900;28;20054;-67
2021/12/04 12:46:44;;;;;;;28.95;16.20;;;5.80;99.90;;;;;;4995783;28;21012;-67
2021/12/04 12:49:36;;;;;;;29.70;16.52;;;5.80;99.90;;;;;;4995688;28;20061;-67
2021/12/04 12:52:23;;;;;;;31.83;17.95;;;5.80;99.90;;;;;;5004519;28;20057;-67
2021/12/04 12:55:17;;;;;;;34.58;18.90;;;5.80;99.90;;;;;;5004715;28;20046;-66
2021/12/04 12:57:45;;;;;;;35.47;19.25;;;5.80;99.90;;;;;;4989896;28;20056;-67
2021/12/04 13:14:12;;;;;;;40.28;21.85;;;5.70;99.90;;;;;;5008034;28;20049;-66
2021/12/04 13:16:38;;;;;;;39.13;21.48;;;5.70;99.90;;;;;;4988785;28;20045;-66
2021/12/04 13:19:09;;;;;;;45.10;24.67;;;5.70;99.90;;;;;;4989589;28;20137;-67
2021/12/04 13:21:38;;;;;;;42.38;23.75;;;5.70;99.90;;;;;;4994292;28;20049;-68
2021/12/04 13:24:06;;;;;;;46.47;24.63;;;5.70;99.90;;;;;;4995146;28;20038;-67
2021/12/04 13:26:35;;;;;;;50.50;24.58;;;5.70;99.90;;;;;;5004466;28;20461;-67
2021/12/04 13:29:03;;;;;;;47.33;24.10;;;5.70;99.90;;;;;;4995174;28;20426;-66
2021/12/04 13:31:29;;;;;;;47.35;23.33;;;5.70;99.90;;;;;;4997005;28;20132;-65
2021/12/04 13:33:55;;;;;;;47.85;24.27;;;5.70;99.90;;;;;;4980066;28;20130;-66
2021/12/04 13:36:24;;;;;;;52.42;25.50;;;5.80;99.90;;;;;;4977986;28;20141;-65
2021/12/04 13:39:03;;;;;;;58.47;26.88;;;5.60;99.90;;;;;;4989844;28;20045;-67
2021/12/04 13:41:30;;;;;;;60.10;25.83;;;5.60;99.90;;;;;;4991181;28;20104;-67
2021/12/04 13:43:58;;;;;;;56.90;25.38;;;5.60;99.90;;;;;;4994210;28;20105;-67
2021/12/04 13:46:24;;;;;;;63.58;27.25;;;5.60;99.90;;;;;;4993462;28;20120;-66
2021/12/04 13:48:51;;;;;;;66.40;28.17;;;5.60;99.90;;;;;;5009255;28;20058;-66
2021/12/04 13:51:17;;;;;;;60.28;25.92;;;5.60;99.90;;;;;;4980980;28;20072;-68
2021/12/04 13:53:45;;;;;;;61.17;25.95;;;5.60;99.90;;;;;;4986626;28;20474;-67
2021/12/04 13:56:16;;;;;;;57.38;25.30;;;5.70;99.90;;;;;;5013846;28;20056;-66
2021/12/04 13:58:50;;;;;;;61.90;27.23;;;5.60;99.90;;;;;;4993307;28;20108;-65
2021/12/04 14:01:16;;;;;;;63.60;25.95;;;5.70;99.90;;;;;;5003701;28;20060;-68
2021/12/04 14:03:43;;;;;;;57.38;25.58;;;5.70;99.90;;;;;;4997284;28;20050;-67
2021/12/04 14:06:11;;;;;;;57.30;26.20;;;5.70;99.90;;;;;;4996938;28;20046;-66
2021/12/04 14:08:37;;;;;;;59.97;25.98;;;5.70;99.90;;;;;;4996508;28;20076;-65
2021/12/04 14:11:03;;;;;;;53.80;24.13;;;5.70;99.90;;;;;;5013819;28;20049;-67
2021/12/04 14:13:28;;;;;;;61.33;24.98;;;5.70;99.90;;;;;;4996858;28;20111;-65
2021/12/04 14:15:55;;;;;;;46.70;23.30;;;5.70;99.90;;;;;;4995508;28;20041;-65
2021/12/04 14:18:23;;;;;;;50.70;23.00;;;6.00;99.90;;;;;;4994293;28;20061;-65
2021/12/04 14:20:52;;;;;;;46.95;22.58;;;5.70;99.90;;;;;;4977054;28;20050;-67
2021/12/04 14:23:18;;;;;;;46.97;22.63;;;5.70;99.90;;;;;;4993857;28;20046;-67
2021/12/04 14:25:45;;;;;;;43.83;22.40;;;5.70;99.90;;;;;;4994297;28;20367;-67
2021/12/04 14:28:17;;;;;;;50.47;22.50;;;5.70;99.90;;;;;;4982054;28;20137;-65
2021/12/04 14:30:44;;;;;;;44.10;22.55;;;5.60;99.90;;;;;;4980404;28;20058;-66
2021/12/04 14:33:11;;;;;;;46.85;23.08;;;5.60;99.90;;;;;;4997913;28;20046;-68
2021/12/04 14:35:41;;;;;;;47.97;22.35;;;5.60;99.90;;;;;;4989059;28;20109;-67
2021/12/04 14:38:10;;;;;;;48.85;22.52;;;5.60;99.90;;;;;;4997392;28;20058;-66
2021/12/04 14:41:04;;;;;;;48.55;22.92;;;5.60;99.90;;;;;;4997245;28;20125;-67
2021/12/04 14:43:35;;;;;;;46.50;22.92;;;5.60;99.90;;;;;;4997536;28;20655;-67
2021/12/04 14:46:02;;;;;;;51.88;23.73;;;5.60;99.90;;;;;;5005131;28;20037;-68
2021/12/04 14:48:38;;;;;;;53.05;24.90;;;5.60;99.90;;;;;;4986530;28;20097;-67
2021/12/04 14:51:13;;;;;;;57.80;25.85;;;5.60;99.90;;;;;;4983731;28;20132;-67
2021/12/04 14:53:50;;;;;;;49.38;24.15;;;5.60;99.90;;;;;;4994677;28;20113;-67
2021/12/04 14:56:19;;;;;;;58.20;25.77;;;5.60;99.90;;;;;;4992795;28;20145;-68
2021/12/04 14:58:45;;;;;;;60.28;27.27;;;5.50;99.90;;;;;;4995007;28;20107;-66
2021/12/04 15:01:13;;;;;;;60.20;26.45;;;5.50;99.90;;;;;;4999448;28;20046;-66
2021/12/04 15:03:43;;;;;;;65.97;29.05;;;5.50;99.90;;;;;;4979574;28;20108;-67
2021/12/04 15:06:13;;;;;;;69.95;28.55;;;5.50;99.90;;;;;;4980295;28;20042;-68
2021/12/04 15:08:42;;;;;;;67.60;28.55;;;5.50;99.90;;;;;;4985951;28;20056;-67
2021/12/04 15:11:09;;;;;;;60.90;27.70;;;5.50;99.90;;;;;;4994836;28;20060;-66
2021/12/04 15:13:42;;;;;;;71.63;29.05;;;5.50;99.90;;;;;;4991479;28;20057;-65
2021/12/04 15:16:10;;;;;;;79.65;30.27;;;5.50;99.90;;;;;;4985258;28;20110;-69
2021/12/04 15:18:38;;;;;;;64.40;29.80;;;5.50;99.90;;;;;;4998821;28;20042;-67
2021/12/04 15:21:12;;;;;;;73.10;29.67;;;5.50;99.90;;;;;;4966225;28;20045;-69
2021/12/04 15:23:39;;;;;;;75.22;31.27;;;5.50;99.90;;;;;;4979815;28;20173;-67
2021/12/04 15:26:15;;;;;;;68.43;29.38;;;5.50;99.90;;;;;;4989634;28;20493;-66
2021/12/04 15:28:47;;;;;;;64.15;29.98;;;5.50;99.90;;;;;;4994884;28;20481;-66
2021/12/04 15:31:13;;;;;;;70.55;29.83;;;5.50;99.90;;;;;;4997137;28;20078;-67
2021/12/04 15:33:44;;;;;;;69.63;31.60;;;5.50;99.90;;;;;;5002437;28;20061;-67
2021/12/04 15:36:24;;;;;;;64.85;30.77;;;5.40;99.90;;;;;;4979876;28;20057;-65
2021/12/04 15:38:54;;;;;;;79.10;32.60;;;5.40;99.90;;;;;;4981940;28;20058;-66
2021/12/04 15:41:40;;;;;;;76.57;32.15;;;5.40;99.90;;;;;;4978556;28;20050;-68